Terminal Aerodrome Forecast
Issued by NWS

Home | Current Version | Previous Version | Text Only | Print | Product List | Glossary On
Versions: 1 2 3 4 5 6 7 8 9 10 11 12 13
000
FTAK31 PAFA 260529
TAFABT
TAF
PABT 260529Z 2606/2706 18004KT P6SM FEW070 FEW090 SCT140
     FM261000 34004KT P6SM FEW060 SCT140
     FM261800 15004KT P6SM FEW060 SCT140=

USA.gov is the U.S. government's official web portal to all federal, state and local government web resources and services.